createdAt,value
2019-06-07T00:04:26.594Z,9.33
2019-06-07T00:09:29.310Z,9.50
2019-06-07T00:14:32.072Z,9.13
2019-06-07T00:19:35.002Z,8.53
2019-06-07T00:24:37.745Z,9.00
2019-06-07T00:29:40.464Z,10.27
2019-06-07T00:34:43.206Z,9.60
2019-06-07T00:39:45.922Z,9.63
2019-06-07T00:44:48.694Z,8.33
2019-06-07T00:49:51.428Z,8.30
2019-06-07T00:54:54.173Z,8.70
2019-06-07T00:59:56.878Z,7.60
2019-06-07T01:04:59.606Z,8.30
2019-06-07T01:10:02.449Z,8.70
2019-06-07T01:15:07.596Z,7.80
2019-06-07T01:20:11.320Z,9.40
2019-06-07T01:25:15.637Z,7.50
2019-06-07T01:30:22.770Z,8.10
2019-06-07T01:35:25.477Z,9.13
2019-06-07T01:40:32.246Z,7.80
2019-06-07T01:45:33.236Z,9.10
2019-06-07T01:50:35.986Z,10.33
2019-06-07T01:55:38.712Z,10.37
2019-06-07T02:00:41.439Z,11.03
2019-06-07T02:05:44.156Z,11.53
2019-06-07T02:10:46.865Z,11.57
2019-06-07T02:15:49.579Z,9.63
2019-06-07T02:20:52.293Z,10.53
2019-06-07T02:25:55.098Z,11.40
2019-06-07T02:31:00.573Z,12.57
2019-06-07T02:36:02.596Z,13.70
2019-06-07T02:41:05.403Z,12.87
2019-06-07T02:46:30.556Z,14.10
2019-06-07T02:51:32.745Z,12.80
2019-06-07T02:56:44.466Z,14.37
2019-06-07T03:01:41.339Z,13.27
2019-06-07T03:06:44.017Z,12.50
2019-06-07T03:11:51.126Z,13.40
2019-06-07T03:17:03.356Z,13.83
2019-06-07T03:22:06.152Z,13.53
2019-06-07T03:27:34.973Z,12.93
2019-06-07T03:32:13.547Z,13.40
2019-06-07T03:37:16.295Z,14.07
2019-06-07T03:42:19.023Z,13.50
2019-06-07T03:47:24.005Z,14.13
2019-06-07T03:52:27.456Z,14.83
2019-06-07T03:57:46.334Z,13.70
2019-06-07T04:02:38.619Z,13.87
2019-06-07T04:07:44.187Z,14.27
2019-06-07T04:12:44.703Z,14.53
2019-06-07T04:18:01.460Z,13.67
2019-06-07T04:22:53.746Z,14.20
2019-06-07T04:27:56.616Z,13.23
2019-06-07T04:32:59.507Z,14.30
2019-06-07T04:38:02.321Z,13.80
2019-06-07T04:43:06.139Z,13.40
2019-06-07T04:48:09.096Z,14.80
2019-06-07T04:53:11.849Z,16.80
2019-06-07T04:58:14.576Z,13.80
2019-06-07T05:03:17.330Z,12.90
2019-06-07T05:08:28.231Z,11.27
2019-06-07T05:13:24.738Z,11.00
2019-06-07T05:18:36.348Z,10.97
2019-06-07T05:24:05.942Z,9.30
2019-06-07T05:28:49.104Z,7.80
2019-06-07T05:34:03.033Z,8.10
2019-06-07T05:39:07.857Z,7.10
2019-06-07T05:44:13.085Z,6.90
2019-06-07T05:49:16.032Z,6.33
2019-06-07T05:54:18.814Z,5.87
2019-06-07T05:59:21.616Z,5.53
2019-06-07T06:04:24.332Z,6.13
2019-06-07T06:09:27.501Z,5.73
2019-06-07T06:14:30.426Z,5.30
2019-06-07T06:19:33.143Z,5.10
2019-06-07T06:24:37.178Z,5.43
2019-06-07T06:29:41.822Z,5.37
2019-06-07T06:34:49.353Z,5.20
2019-06-07T06:39:50.921Z,5.03
2019-06-07T06:44:54.300Z,5.03
2019-06-07T06:49:58.511Z,5.17
2019-06-07T06:55:01.632Z,4.50
2019-06-07T07:00:08.083Z,5.10
2019-06-07T07:05:11.674Z,5.10
2019-06-07T07:10:24.847Z,4.47
2019-06-07T07:15:27.806Z,3.97
2019-06-07T07:20:30.514Z,4.00
2019-06-07T07:25:33.240Z,4.30
2019-06-07T07:30:44.574Z,3.10
2019-06-07T07:36:14.019Z,3.30
2019-06-07T07:41:15.095Z,3.83
2019-06-07T07:46:03.052Z,2.93
2019-06-07T07:51:03.384Z,3.90
2019-06-07T07:56:06.777Z,4.67
2019-06-07T08:01:11.254Z,3.97
2019-06-07T08:06:14.243Z,4.10
2019-06-07T08:11:16.962Z,3.37
2019-06-07T08:16:19.758Z,4.63
2019-06-07T08:21:26.560Z,4.87
2019-06-07T08:26:29.058Z,5.00
2019-06-07T08:31:31.770Z,4.80
2019-06-07T08:36:42.003Z,4.90
2019-06-07T08:41:54.159Z,4.30
2019-06-07T08:46:45.038Z,5.10
2019-06-07T08:51:47.769Z,5.03
2019-06-07T08:56:53.628Z,4.40
2019-06-07T09:01:59.724Z,5.17
2019-06-07T09:07:09.103Z,4.03
2019-06-07T09:12:10.704Z,3.80
2019-06-07T09:17:12.320Z,4.00
2019-06-07T09:22:14.477Z,3.83
2019-06-07T09:27:17.308Z,4.40
2019-06-07T09:32:20.031Z,3.87
2019-06-07T09:38:03.517Z,3.83
2019-06-07T09:42:27.520Z,3.83
2019-06-07T09:47:32.793Z,3.40
2019-06-07T09:52:57.340Z,3.40
2019-06-07T09:57:42.059Z,3.20
2019-06-07T10:02:44.917Z,4.03
2019-06-07T10:08:02.327Z,3.60
2019-06-07T10:12:53.696Z,2.90
2019-06-07T10:17:56.461Z,3.20
2019-06-07T10:22:59.543Z,3.10
2019-06-07T10:28:03.720Z,3.00
2019-06-07T10:33:07.023Z,3.03
2019-06-07T10:38:10.725Z,3.03
2019-06-07T10:43:14.522Z,2.53
2019-06-07T10:48:17.618Z,3.03
2019-06-07T10:53:20.349Z,2.37
2019-06-07T10:58:23.114Z,2.33
2019-06-07T11:03:25.852Z,2.33
2019-06-07T11:08:28.582Z,2.60
2019-06-07T11:13:31.484Z,2.53
2019-06-07T11:18:34.202Z,1.97
2019-06-07T11:23:37.023Z,2.70
2019-06-07T11:28:39.841Z,2.73
2019-06-07T11:33:42.573Z,2.83
2019-06-07T11:38:45.391Z,2.83
2019-06-07T11:43:48.130Z,3.37
2019-06-07T11:48:50.913Z,2.60
2019-06-07T11:53:53.700Z,3.07
2019-06-07T11:58:56.494Z,2.37
2019-06-07T12:03:59.315Z,2.93
2019-06-07T12:09:02.045Z,2.77
2019-06-07T12:14:05.336Z,2.63
2019-06-07T12:19:09.544Z,3.93
2019-06-07T12:24:12.521Z,3.10
2019-06-07T12:29:15.263Z,2.70
2019-06-07T12:34:17.984Z,2.80
2019-06-07T12:39:20.732Z,2.80
2019-06-07T12:44:23.461Z,3.00
2019-06-07T12:49:26.173Z,2.73
2019-06-07T12:54:28.915Z,2.40
2019-06-07T12:59:31.644Z,2.60
2019-06-07T13:04:34.363Z,2.23
2019-06-07T13:09:37.084Z,2.83
2019-06-07T13:14:39.809Z,3.30
2019-06-07T13:19:42.552Z,2.87
2019-06-07T13:24:45.274Z,2.90
2019-06-07T13:29:48.006Z,3.50
2019-06-07T13:34:50.759Z,3.60
2019-06-07T13:39:53.482Z,3.03
2019-06-07T13:44:56.278Z,3.17
2019-06-07T13:49:59.100Z,3.23
2019-06-07T13:55:02.475Z,3.87
2019-06-07T14:00:10.850Z,3.60
2019-06-07T14:05:13.998Z,3.20
2019-06-07T14:10:16.744Z,3.30
2019-06-07T14:15:20.525Z,4.10
2019-06-07T14:20:26.756Z,3.00
2019-06-07T14:25:29.371Z,3.30
2019-06-07T14:30:32.749Z,3.50
2019-06-07T14:35:35.571Z,4.00
2019-06-07T14:40:40.133Z,3.50
2019-06-07T14:45:42.902Z,3.20
2019-06-07T14:50:45.649Z,3.53
2019-06-07T14:55:48.374Z,3.60
2019-06-07T15:00:51.084Z,3.23
2019-06-07T15:05:53.882Z,2.87
2019-06-07T15:10:56.654Z,3.30
2019-06-07T15:15:59.367Z,2.77
2019-06-07T15:21:02.424Z,3.07
2019-06-07T15:26:05.217Z,3.67
2019-06-07T15:31:07.945Z,3.40
2019-06-07T15:36:10.667Z,4.37
2019-06-07T15:41:13.374Z,3.20
2019-06-07T15:46:16.157Z,4.60
2019-06-07T15:51:18.940Z,3.77
2019-06-07T15:56:21.656Z,3.63
2019-06-07T16:01:24.369Z,3.40
2019-06-07T16:06:27.102Z,3.73
2019-06-07T16:11:30.356Z,3.80
2019-06-07T16:16:33.096Z,3.60
2019-06-07T16:21:35.827Z,3.93
2019-06-07T16:26:38.548Z,4.20
2019-06-07T16:31:41.261Z,4.33
2019-06-07T16:36:44.508Z,3.90
2019-06-07T16:41:48.954Z,3.60
2019-06-07T16:46:51.770Z,4.40
2019-06-07T16:52:02.573Z,4.20
2019-06-07T16:57:05.305Z,4.77
2019-06-07T17:02:08.014Z,4.97
2019-06-07T17:07:10.727Z,4.27
2019-06-07T17:12:13.441Z,6.67
2019-06-07T17:17:17.081Z,5.43
2019-06-07T17:22:19.878Z,5.87
2019-06-07T17:27:22.622Z,4.97
2019-06-07T17:32:25.362Z,4.57
2019-06-07T17:37:28.160Z,4.60
2019-06-07T17:42:30.900Z,4.83
2019-06-07T17:47:33.616Z,4.80
2019-06-07T17:52:36.329Z,5.47
2019-06-07T17:57:39.061Z,5.13
2019-06-07T18:02:42.632Z,5.20
2019-06-07T18:07:50.055Z,4.80
2019-06-07T18:12:53.042Z,4.97
2019-06-07T18:17:56.958Z,6.87
2019-06-07T18:23:03.940Z,6.50
2019-06-07T18:28:07.048Z,5.10
2019-06-07T18:33:09.791Z,5.90
2019-06-07T18:38:12.503Z,5.10
2019-06-07T18:43:15.222Z,5.83
2019-06-07T18:48:17.926Z,5.00
2019-06-07T18:53:20.659Z,5.50
2019-06-07T18:58:23.398Z,5.60
2019-06-07T19:03:26.117Z,5.30
2019-06-07T19:08:28.927Z,6.00
2019-06-07T19:13:31.985Z,5.37
2019-06-07T19:18:34.710Z,3.40
2019-06-07T19:23:37.445Z,3.60
2019-06-07T19:28:40.194Z,3.27
2019-06-07T19:33:49.158Z,4.27
2019-06-07T19:38:47.567Z,2.73
2019-06-07T19:43:50.334Z,3.03
2019-06-07T19:48:54.488Z,4.80
2019-06-07T19:53:57.709Z,5.73
2019-06-07T19:59:01.704Z,6.00
2019-06-07T20:04:04.668Z,6.40
2019-06-07T20:09:07.595Z,6.00
2019-06-07T20:14:10.535Z,7.30
2019-06-07T20:19:13.303Z,7.87
2019-06-07T20:24:26.471Z,6.00
2019-06-07T20:29:25.720Z,5.40
2019-06-07T20:34:25.655Z,5.23
2019-06-07T20:39:28.633Z,4.70
2019-06-07T20:44:31.440Z,4.00
2019-06-07T20:49:34.531Z,3.00
2019-06-07T20:54:37.388Z,2.00
2019-06-07T20:59:40.372Z,2.30
2019-06-07T21:11:07.795Z,2.50
2019-06-07T21:16:10.734Z,2.07
2019-06-07T21:21:13.587Z,2.20
2019-06-07T21:26:16.463Z,2.37
2019-06-07T21:31:19.336Z,1.67
2019-06-07T21:36:22.111Z,1.70
2019-06-07T21:41:24.896Z,1.90
2019-06-07T21:46:27.763Z,1.70
2019-06-07T21:51:30.676Z,2.07
2019-06-07T21:56:33.587Z,1.80
2019-06-07T22:01:36.873Z,2.13
2019-06-07T22:06:39.902Z,1.57
2019-06-07T22:11:42.926Z,1.50
2019-06-07T22:16:46.377Z,1.83
2019-06-07T22:22:02.119Z,2.23
2019-06-07T22:26:54.509Z,1.50
2019-06-07T22:32:00.080Z,1.10
2019-06-07T22:37:23.634Z,1.30
2019-06-07T22:42:28.938Z,1.53
2019-06-07T22:47:38.032Z,1.30
2019-06-07T22:52:42.220Z,1.37
2019-06-07T22:57:58.296Z,1.83
2019-06-07T23:03:01.030Z,1.00
2019-06-07T23:08:05.346Z,1.17
2019-06-07T23:13:09.859Z,1.27
2019-06-07T23:18:13.460Z,1.33
2019-06-07T23:23:17.305Z,1.00
2019-06-07T23:34:46.094Z,0.90
2019-06-07T23:39:49.513Z,0.87
2019-06-07T23:44:52.369Z,1.00
2019-06-07T23:49:58.081Z,0.93
2019-06-07T23:55:00.896Z,1.03
